sensor_id;sensor_type;location;lat;lon;timestamp;temperature;humidity
18741;DHT22;9499;52.472;13.448;2023-07-31T00:01:56;16.30;53.60
18741;DHT22;9499;52.472;13.448;2023-07-31T00:04:24;16.30;57.00
18741;DHT22;9499;52.472;13.448;2023-07-31T00:06:50;16.30;81.60
18741;DHT22;9499;52.472;13.448;2023-07-31T00:09:17;16.30;90.50
18741;DHT22;9499;52.472;13.448;2023-07-31T00:11:43;16.30;99.90
18741;DHT22;9499;52.472;13.448;2023-07-31T00:14:10;16.30;99.90
18741;DHT22;9499;52.472;13.448;2023-07-31T00:16:36;16.40;99.90
18741;DHT22;9499;52.472;13.448;2023-07-31T00:19:03;16.40;99.90
18741;DHT22;9499;52.472;13.448;2023-07-31T00:21:30;16.30;99.90
18741;DHT22;9499;52.472;13.448;2023-07-31T00:23:57;16.30;99.90
18741;DHT22;9499;52.472;13.448;2023-07-31T00:26:23;16.30;99.90
18741;DHT22;9499;52.472;13.448;2023-07-31T00:28:50;16.30;99.90
18741;DHT22;9499;52.472;13.448;2023-07-31T00:31:16;16.30;99.90
18741;DHT22;9499;52.472;13.448;2023-07-31T00:33:43;16.30;99.90
18741;DHT22;9499;52.472;13.448;2023-07-31T00:36:09;16.30;99.90
18741;DHT22;9499;52.472;13.448;2023-07-31T00:38:37;16.30;99.90
18741;DHT22;9499;52.472;13.448;2023-07-31T00:41:03;16.30;99.90
18741;DHT22;9499;52.472;13.448;2023-07-31T00:43:30;16.30;99.90
18741;DHT22;9499;52.472;13.448;2023-07-31T00:45:56;16.30;99.90
18741;DHT22;9499;52.472;13.448;2023-07-31T00:48:23;16.20;99.90
18741;DHT22;9499;52.472;13.448;2023-07-31T00:50:50;16.20;99.90
18741;DHT22;9499;52.472;13.448;2023-07-31T00:53:17;16.20;99.90
18741;DHT22;9499;52.472;13.448;2023-07-31T00:55:45;16.20;99.90
18741;DHT22;9499;52.472;13.448;2023-07-31T00:58:11;16.30;99.90
18741;DHT22;9499;52.472;13.448;2023-07-31T01:00:38;16.30;99.90
18741;DHT22;9499;52.472;13.448;2023-07-31T01:03:04;16.30;99.90
18741;DHT22;9499;52.472;13.448;2023-07-31T01:05:36;16.30;99.90
18741;DHT22;9499;52.472;13.448;2023-07-31T01:08:10;16.40;99.90
18741;DHT22;9499;52.472;13.448;2023-07-31T01:10:46;16.40;99.90
18741;DHT22;9499;52.472;13.448;2023-07-31T01:13:15;16.40;99.90
18741;DHT22;9499;52.472;13.448;2023-07-31T01:15:42;16.40;99.90
18741;DHT22;9499;52.472;13.448;2023-07-31T01:18:08;16.40;99.90
18741;DHT22;9499;52.472;13.448;2023-07-31T01:20:35;16.40;99.90
18741;DHT22;9499;52.472;13.448;2023-07-31T01:23:26;16.40;99.90
18741;DHT22;9499;52.472;13.448;2023-07-31T01:26:00;16.40;99.90
18741;DHT22;9499;52.472;13.448;2023-07-31T01:28:33;16.40;99.90
18741;DHT22;9499;52.472;13.448;2023-07-31T01:31:07;16.30;99.90
18741;DHT22;9499;52.472;13.448;2023-07-31T01:33:35;16.30;99.90
18741;DHT22;9499;52.472;13.448;2023-07-31T01:36:03;16.30;99.90
18741;DHT22;9499;52.472;13.448;2023-07-31T01:38:29;16.30;99.90
18741;DHT22;9499;52.472;13.448;2023-07-31T01:40:57;16.20;99.90
18741;DHT22;9499;52.472;13.448;2023-07-31T01:43:24;16.20;99.90
18741;DHT22;9499;52.472;13.448;2023-07-31T01:45:50;16.30;99.90
18741;DHT22;9499;52.472;13.448;2023-07-31T01:48:17;16.20;99.90
18741;DHT22;9499;52.472;13.448;2023-07-31T01:50:43;16.20;99.90
18741;DHT22;9499;52.472;13.448;2023-07-31T01:53:10;16.20;99.90
18741;DHT22;9499;52.472;13.448;2023-07-31T01:55:37;16.30;99.90
18741;DHT22;9499;52.472;13.448;2023-07-31T01:58:05;16.30;99.90
18741;DHT22;9499;52.472;13.448;2023-07-31T02:00:31;16.20;99.90
18741;DHT22;9499;52.472;13.448;2023-07-31T02:02:59;16.30;99.90
18741;DHT22;9499;52.472;13.448;2023-07-31T02:05:26;16.30;99.90
18741;DHT22;9499;52.472;13.448;2023-07-31T02:07:52;16.40;99.90
18741;DHT22;9499;52.472;13.448;2023-07-31T02:10:19;16.40;99.90
18741;DHT22;9499;52.472;13.448;2023-07-31T02:12:45;16.40;99.90
18741;DHT22;9499;52.472;13.448;2023-07-31T02:15:13;16.40;99.90
18741;DHT22;9499;52.472;13.448;2023-07-31T02:17:39;16.40;99.90
18741;DHT22;9499;52.472;13.448;2023-07-31T02:20:07;16.40;99.90
18741;DHT22;9499;52.472;13.448;2023-07-31T02:22:33;16.30;99.90
18741;DHT22;9499;52.472;13.448;2023-07-31T02:25:00;16.40;99.90
18741;DHT22;9499;52.472;13.448;2023-07-31T02:27:26;16.40;99.90
18741;DHT22;9499;52.472;13.448;2023-07-31T02:29:53;16.40;99.90
18741;DHT22;9499;52.472;13.448;2023-07-31T02:32:21;16.40;99.90
18741;DHT22;9499;52.472;13.448;2023-07-31T02:34:48;16.40;99.90
18741;DHT22;9499;52.472;13.448;2023-07-31T02:37:17;16.40;99.90
18741;DHT22;9499;52.472;13.448;2023-07-31T02:39:43;16.40;99.90
18741;DHT22;9499;52.472;13.448;2023-07-31T02:42:10;16.40;99.90
18741;DHT22;9499;52.472;13.448;2023-07-31T02:44:36;16.40;99.90
18741;DHT22;9499;52.472;13.448;2023-07-31T02:47:03;16.40;99.90
18741;DHT22;9499;52.472;13.448;2023-07-31T02:49:31;16.40;99.90
18741;DHT22;9499;52.472;13.448;2023-07-31T02:51:57;16.40;99.90
18741;DHT22;9499;52.472;13.448;2023-07-31T02:54:24;16.40;99.90
18741;DHT22;9499;52.472;13.448;2023-07-31T02:56:51;16.50;99.90
18741;DHT22;9499;52.472;13.448;2023-07-31T02:59:17;16.50;99.90
18741;DHT22;9499;52.472;13.448;2023-07-31T03:01:44;16.50;99.90
18741;DHT22;9499;52.472;13.448;2023-07-31T03:04:10;16.40;99.90
18741;DHT22;9499;52.472;13.448;2023-07-31T03:06:38;16.40;99.90
18741;DHT22;9499;52.472;13.448;2023-07-31T03:09:05;16.40;99.90
18741;DHT22;9499;52.472;13.448;2023-07-31T03:11:31;16.40;99.90
18741;DHT22;9499;52.472;13.448;2023-07-31T03:13:58;16.40;99.90
18741;DHT22;9499;52.472;13.448;2023-07-31T03:16:24;16.40;99.90
18741;DHT22;9499;52.472;13.448;2023-07-31T03:18:50;16.40;99.90
18741;DHT22;9499;52.472;13.448;2023-07-31T03:21:17;16.40;99.90
18741;DHT22;9499;52.472;13.448;2023-07-31T03:23:45;16.40;99.90
18741;DHT22;9499;52.472;13.448;2023-07-31T03:26:11;16.30;99.90
18741;DHT22;9499;52.472;13.448;2023-07-31T03:28:38;16.30;99.90
18741;DHT22;9499;52.472;13.448;2023-07-31T03:31:04;16.30;99.90
18741;DHT22;9499;52.472;13.448;2023-07-31T03:33:31;16.30;99.90
18741;DHT22;9499;52.472;13.448;2023-07-31T03:35:57;16.40;99.90
18741;DHT22;9499;52.472;13.448;2023-07-31T03:38:24;16.40;99.90
18741;DHT22;9499;52.472;13.448;2023-07-31T03:40:52;16.40;99.90
18741;DHT22;9499;52.472;13.448;2023-07-31T03:43:18;16.40;99.90
18741;DHT22;9499;52.472;13.448;2023-07-31T03:45:45;16.40;99.90
18741;DHT22;9499;52.472;13.448;2023-07-31T03:48:11;16.40;99.90
18741;DHT22;9499;52.472;13.448;2023-07-31T03:50:38;16.40;99.90
18741;DHT22;9499;52.472;13.448;2023-07-31T03:53:04;16.40;99.90
18741;DHT22;9499;52.472;13.448;2023-07-31T03:55:31;16.40;99.90
18741;DHT22;9499;52.472;13.448;2023-07-31T03:57:59;16.40;99.90
18741;DHT22;9499;52.472;13.448;2023-07-31T04:00:26;16.40;99.90
18741;DHT22;9499;52.472;13.448;2023-07-31T04:02:53;16.40;99.90
18741;DHT22;9499;52.472;13.448;2023-07-31T04:05:19;16.40;99.90
18741;DHT22;9499;52.472;13.448;2023-07-31T04:07:46;16.40;99.90
18741;DHT22;9499;52.472;13.448;2023-07-31T04:10:12;16.40;99.90
18741;DHT22;9499;52.472;13.448;2023-07-31T04:12:39;16.40;99.90
18741;DHT22;9499;52.472;13.448;2023-07-31T04:15:07;16.40;99.90
18741;DHT22;9499;52.472;13.448;2023-07-31T04:17:34;16.40;99.90
18741;DHT22;9499;52.472;13.448;2023-07-31T04:20:00;16.40;99.90
18741;DHT22;9499;52.472;13.448;2023-07-31T04:22:27;16.40;99.90
18741;DHT22;9499;52.472;13.448;2023-07-31T04:24:54;16.40;99.90
18741;DHT22;9499;52.472;13.448;2023-07-31T04:27:20;16.40;99.90
18741;DHT22;9499;52.472;13.448;2023-07-31T04:29:47;16.40;99.90
18741;DHT22;9499;52.472;13.448;2023-07-31T04:32:14;16.50;99.90
18741;DHT22;9499;52.472;13.448;2023-07-31T04:34:42;16.50;99.90
18741;DHT22;9499;52.472;13.448;2023-07-31T04:37:08;16.50;99.90
18741;DHT22;9499;52.472;13.448;2023-07-31T04:39:35;16.50;99.90
18741;DHT22;9499;52.472;13.448;2023-07-31T04:42:01;16.40;99.90
18741;DHT22;9499;52.472;13.448;2023-07-31T04:44:28;16.40;99.90
18741;DHT22;9499;52.472;13.448;2023-07-31T04:46:55;16.40;99.90
18741;DHT22;9499;52.472;13.448;2023-07-31T04:49:23;16.50;99.90
18741;DHT22;9499;52.472;13.448;2023-07-31T04:51:49;16.40;99.90
18741;DHT22;9499;52.472;13.448;2023-07-31T04:54:16;16.40;99.90
18741;DHT22;9499;52.472;13.448;2023-07-31T04:56:42;16.40;99.90
18741;DHT22;9499;52.472;13.448;2023-07-31T04:59:09;16.40;99.90
18741;DHT22;9499;52.472;13.448;2023-07-31T05:01:35;16.40;99.90
18741;DHT22;9499;52.472;13.448;2023-07-31T05:04:02;16.40;99.90
18741;DHT22;9499;52.472;13.448;2023-07-31T05:06:30;16.40;99.90
18741;DHT22;9499;52.472;13.448;2023-07-31T05:08:56;16.40;99.90
18741;DHT22;9499;52.472;13.448;2023-07-31T05:11:23;16.40;99.90
18741;DHT22;9499;52.472;13.448;2023-07-31T05:13:49;16.40;99.90
18741;DHT22;9499;52.472;13.448;2023-07-31T05:16:15;16.50;99.90
18741;DHT22;9499;52.472;13.448;2023-07-31T05:18:42;16.50;99.90
18741;DHT22;9499;52.472;13.448;2023-07-31T05:21:09;16.50;99.90
18741;DHT22;9499;52.472;13.448;2023-07-31T05:23:36;16.60;99.90
18741;DHT22;9499;52.472;13.448;2023-07-31T05:26:04;16.60;99.90
18741;DHT22;9499;52.472;13.448;2023-07-31T05:28:30;16.60;99.90
18741;DHT22;9499;52.472;13.448;2023-07-31T05:30:59;16.60;99.90
18741;DHT22;9499;52.472;13.448;2023-07-31T05:33:25;16.60;99.90
18741;DHT22;9499;52.472;13.448;2023-07-31T05:35:52;16.60;99.90
18741;DHT22;9499;52.472;13.448;2023-07-31T05:38:18;16.60;99.90
18741;DHT22;9499;52.472;13.448;2023-07-31T05:40:46;16.70;99.90
18741;DHT22;9499;52.472;13.448;2023-07-31T05:43:13;16.60;99.90
18741;DHT22;9499;52.472;13.448;2023-07-31T05:45:40;16.60;99.90
18741;DHT22;9499;52.472;13.448;2023-07-31T05:48:06;16.70;99.90
18741;DHT22;9499;52.472;13.448;2023-07-31T05:50:33;16.60;99.90
18741;DHT22;9499;52.472;13.448;2023-07-31T05:52:59;16.70;99.90
18741;DHT22;9499;52.472;13.448;2023-07-31T05:55:26;16.70;99.90
18741;DHT22;9499;52.472;13.448;2023-07-31T05:57:54;16.70;99.90
18741;DHT22;9499;52.472;13.448;2023-07-31T06:00:21;16.70;99.90
18741;DHT22;9499;52.472;13.448;2023-07-31T06:02:48;16.70;99.90
18741;DHT22;9499;52.472;13.448;2023-07-31T06:05:14;16.70;99.90
18741;DHT22;9499;52.472;13.448;2023-07-31T06:07:41;16.70;99.90
18741;DHT22;9499;52.472;13.448;2023-07-31T06:10:08;16.70;99.90
18741;DHT22;9499;52.472;13.448;2023-07-31T06:12:36;16.70;99.90
18741;DHT22;9499;52.472;13.448;2023-07-31T06:15:04;16.70;99.90
18741;DHT22;9499;52.472;13.448;2023-07-31T06:17:31;16.80;99.90
18741;DHT22;9499;52.472;13.448;2023-07-31T06:19:58;16.80;99.90
18741;DHT22;9499;52.472;13.448;2023-07-31T06:22:24;16.80;99.90
18741;DHT22;9499;52.472;13.448;2023-07-31T06:24:50;16.80;99.90
18741;DHT22;9499;52.472;13.448;2023-07-31T06:27:17;16.80;99.90
18741;DHT22;9499;52.472;13.448;2023-07-31T06:29:44;16.80;99.90
18741;DHT22;9499;52.472;13.448;2023-07-31T06:32:11;16.90;99.90
18741;DHT22;9499;52.472;13.448;2023-07-31T06:34:38;16.90;99.90
18741;DHT22;9499;52.472;13.448;2023-07-31T06:37:05;16.90;99.90
18741;DHT22;9499;52.472;13.448;2023-07-31T06:39:31;16.90;99.90
18741;DHT22;9499;52.472;13.448;2023-07-31T06:41:58;16.90;99.90
18741;DHT22;9499;52.472;13.448;2023-07-31T06:44:24;17.00;99.90
18741;DHT22;9499;52.472;13.448;2023-07-31T06:46:51;17.00;99.90
18741;DHT22;9499;52.472;13.448;2023-07-31T06:49:19;17.00;99.90
18741;DHT22;9499;52.472;13.448;2023-07-31T06:51:45;17.10;99.90
18741;DHT22;9499;52.472;13.448;2023-07-31T06:54:12;17.10;99.90
18741;DHT22;9499;52.472;13.448;2023-07-31T06:56:38;17.20;99.90
18741;DHT22;9499;52.472;13.448;2023-07-31T06:59:05;17.20;99.90
18741;DHT22;9499;52.472;13.448;2023-07-31T07:01:31;17.10;99.90
18741;DHT22;9499;52.472;13.448;2023-07-31T07:03:58;17.10;99.90
18741;DHT22;9499;52.472;13.448;2023-07-31T07:06:25;17.10;99.90
18741;DHT22;9499;52.472;13.448;2023-07-31T07:08:52;17.00;99.90
18741;DHT22;9499;52.472;13.448;2023-07-31T07:11:19;17.00;99.90
18741;DHT22;9499;52.472;13.448;2023-07-31T07:13:48;17.00;99.90
18741;DHT22;9499;52.472;13.448;2023-07-31T07:16:15;17.00;99.90
18741;DHT22;9499;52.472;13.448;2023-07-31T07:18:41;17.00;99.90
18741;DHT22;9499;52.472;13.448;2023-07-31T07:21:08;17.00;99.90
18741;DHT22;9499;52.472;13.448;2023-07-31T07:23:36;17.00;99.90
18741;DHT22;9499;52.472;13.448;2023-07-31T07:26:02;17.00;99.90
18741;DHT22;9499;52.472;13.448;2023-07-31T07:28:29;16.90;99.90
18741;DHT22;9499;52.472;13.448;2023-07-31T07:30:55;17.00;99.90
18741;DHT22;9499;52.472;13.448;2023-07-31T07:33:22;17.00;99.90
18741;DHT22;9499;52.472;13.448;2023-07-31T07:35:48;17.10;99.90
18741;DHT22;9499;52.472;13.448;2023-07-31T07:38:15;17.10;99.90
18741;DHT22;9499;52.472;13.448;2023-07-31T07:40:43;17.20;99.90
18741;DHT22;9499;52.472;13.448;2023-07-31T07:43:10;17.20;99.90
18741;DHT22;9499;52.472;13.448;2023-07-31T07:45:36;17.30;99.90
18741;DHT22;9499;52.472;13.448;2023-07-31T07:48:03;17.30;99.90
18741;DHT22;9499;52.472;13.448;2023-07-31T07:50:30;17.40;99.90
18741;DHT22;9499;52.472;13.448;2023-07-31T07:52:56;17.50;99.90
18741;DHT22;9499;52.472;13.448;2023-07-31T07:55:23;17.50;99.90
18741;DHT22;9499;52.472;13.448;2023-07-31T07:57:50;17.50;99.90
18741;DHT22;9499;52.472;13.448;2023-07-31T08:00:17;17.50;99.90
18741;DHT22;9499;52.472;13.448;2023-07-31T08:02:43;17.60;99.90
18741;DHT22;9499;52.472;13.448;2023-07-31T08:05:10;17.60;99.90
18741;DHT22;9499;52.472;13.448;2023-07-31T08:07:36;17.60;99.90
18741;DHT22;9499;52.472;13.448;2023-07-31T08:10:03;17.60;99.90
18741;DHT22;9499;52.472;13.448;2023-07-31T08:12:30;17.50;99.90
18741;DHT22;9499;52.472;13.448;2023-07-31T08:14:58;17.50;99.90
18741;DHT22;9499;52.472;13.448;2023-07-31T08:17:25;17.40;99.90
18741;DHT22;9499;52.472;13.448;2023-07-31T08:19:51;17.40;99.90
18741;DHT22;9499;52.472;13.448;2023-07-31T08:22:18;17.30;99.90
18741;DHT22;9499;52.472;13.448;2023-07-31T08:24:44;17.30;99.90
18741;DHT22;9499;52.472;13.448;2023-07-31T08:27:11;17.40;99.90
18741;DHT22;9499;52.472;13.448;2023-07-31T08:29:37;17.30;99.90
18741;DHT22;9499;52.472;13.448;2023-07-31T08:32:06;17.30;99.90
18741;DHT22;9499;52.472;13.448;2023-07-31T08:34:33;17.40;99.90
18741;DHT22;9499;52.472;13.448;2023-07-31T08:36:59;17.40;99.90
18741;DHT22;9499;52.472;13.448;2023-07-31T08:39:25;17.40;99.90
18741;DHT22;9499;52.472;13.448;2023-07-31T08:41:58;17.40;99.90
18741;DHT22;9499;52.472;13.448;2023-07-31T08:44:24;17.40;99.90
18741;DHT22;9499;52.472;13.448;2023-07-31T08:46:51;17.40;99.90
18741;DHT22;9499;52.472;13.448;2023-07-31T08:49:20;17.40;99.90
18741;DHT22;9499;52.472;13.448;2023-07-31T08:51:49;17.50;99.90
18741;DHT22;9499;52.472;13.448;2023-07-31T08:54:16;17.50;99.90
18741;DHT22;9499;52.472;13.448;2023-07-31T08:56:43;17.60;99.90
18741;DHT22;9499;52.472;13.448;2023-07-31T08:59:11;17.60;99.90
18741;DHT22;9499;52.472;13.448;2023-07-31T09:01:43;17.60;99.90
18741;DHT22;9499;52.472;13.448;2023-07-31T09:04:10;17.70;99.90
18741;DHT22;9499;52.472;13.448;2023-07-31T09:06:40;17.70;99.90
18741;DHT22;9499;52.472;13.448;2023-07-31T09:09:07;17.70;99.90
18741;DHT22;9499;52.472;13.448;2023-07-31T09:11:34;17.80;99.90
18741;DHT22;9499;52.472;13.448;2023-07-31T09:14:01;17.90;99.90
18741;DHT22;9499;52.472;13.448;2023-07-31T09:16:34;17.90;99.90
18741;DHT22;9499;52.472;13.448;2023-07-31T09:19:00;17.90;99.90
18741;DHT22;9499;52.472;13.448;2023-07-31T09:21:28;18.00;99.90
18741;DHT22;9499;52.472;13.448;2023-07-31T09:23:56;18.00;99.90
18741;DHT22;9499;52.472;13.448;2023-07-31T09:26:31;18.00;99.90
18741;DHT22;9499;52.472;13.448;2023-07-31T09:28:57;18.00;99.90
18741;DHT22;9499;52.472;13.448;2023-07-31T09:31:42;18.00;99.90
18741;DHT22;9499;52.472;13.448;2023-07-31T09:34:09;17.90;99.90
18741;DHT22;9499;52.472;13.448;2023-07-31T09:36:41;17.80;99.90
18741;DHT22;9499;52.472;13.448;2023-07-31T09:39:11;17.70;99.90
18741;DHT22;9499;52.472;13.448;2023-07-31T09:41:38;17.60;99.90
18741;DHT22;9499;52.472;13.448;2023-07-31T09:44:04;17.60;99.90
18741;DHT22;9499;52.472;13.448;2023-07-31T09:46:31;17.60;99.90
18741;DHT22;9499;52.472;13.448;2023-07-31T09:49:08;17.60;99.90
18741;DHT22;9499;52.472;13.448;2023-07-31T09:51:35;17.60;99.90
18741;DHT22;9499;52.472;13.448;2023-07-31T09:54:09;17.60;99.90
18741;DHT22;9499;52.472;13.448;2023-07-31T09:56:39;17.60;99.90
18741;DHT22;9499;52.472;13.448;2023-07-31T09:59:08;17.70;99.90
18741;DHT22;9499;52.472;13.448;2023-07-31T10:01:37;17.70;99.90
18741;DHT22;9499;52.472;13.448;2023-07-31T10:04:04;17.80;99.90
18741;DHT22;9499;52.472;13.448;2023-07-31T10:06:33;17.90;99.90
18741;DHT22;9499;52.472;13.448;2023-07-31T10:09:01;17.90;99.90
18741;DHT22;9499;52.472;13.448;2023-07-31T10:11:30;18.00;99.90
18741;DHT22;9499;52.472;13.448;2023-07-31T10:14:00;18.10;99.90
18741;DHT22;9499;52.472;13.448;2023-07-31T10:16:28;18.20;99.90
18741;DHT22;9499;52.472;13.448;2023-07-31T10:18:57;18.20;99.90
18741;DHT22;9499;52.472;13.448;2023-07-31T10:21:24;18.20;99.90
18741;DHT22;9499;52.472;13.448;2023-07-31T10:23:51;18.20;99.90
18741;DHT22;9499;52.472;13.448;2023-07-31T10:26:19;18.20;99.90
18741;DHT22;9499;52.472;13.448;2023-07-31T10:28:48;18.20;99.90
18741;DHT22;9499;52.472;13.448;2023-07-31T10:31:17;18.30;99.90
18741;DHT22;9499;52.472;13.448;2023-07-31T10:33:45;18.30;99.90
18741;DHT22;9499;52.472;13.448;2023-07-31T10:36:17;18.30;99.90
18741;DHT22;9499;52.472;13.448;2023-07-31T10:38:44;18.30;99.90
18741;DHT22;9499;52.472;13.448;2023-07-31T10:41:11;18.40;99.90
18741;DHT22;9499;52.472;13.448;2023-07-31T10:43:38;18.40;99.90
18741;DHT22;9499;52.472;13.448;2023-07-31T10:46:12;18.50;99.90
18741;DHT22;9499;52.472;13.448;2023-07-31T10:48:39;18.70;99.90
18741;DHT22;9499;52.472;13.448;2023-07-31T10:51:07;19.00;99.90
18741;DHT22;9499;52.472;13.448;2023-07-31T10:53:36;19.20;90.00
18741;DHT22;9499;52.472;13.448;2023-07-31T10:56:04;19.50;59.80
18741;DHT22;9499;52.472;13.448;2023-07-31T10:58:31;19.80;59.20
18741;DHT22;9499;52.472;13.448;2023-07-31T11:01:00;20.10;1.00
18741;DHT22;9499;52.472;13.448;2023-07-31T11:03:42;20.20;1.00
18741;DHT22;9499;52.472;13.448;2023-07-31T11:06:09;20.10;1.00
18741;DHT22;9499;52.472;13.448;2023-07-31T11:08:42;20.20;1.00
18741;DHT22;9499;52.472;13.448;2023-07-31T11:11:11;20.40;1.00
18741;DHT22;9499;52.472;13.448;2023-07-31T11:13:42;20.60;1.00
18741;DHT22;9499;52.472;13.448;2023-07-31T11:16:09;20.80;1.00
18741;DHT22;9499;52.472;13.448;2023-07-31T11:18:38;20.80;1.00
18741;DHT22;9499;52.472;13.448;2023-07-31T11:21:06;20.70;1.00
18741;DHT22;9499;52.472;13.448;2023-07-31T11:23:33;20.60;1.00
18741;DHT22;9499;52.472;13.448;2023-07-31T11:26:00;20.60;1.00
18741;DHT22;9499;52.472;13.448;2023-07-31T11:28:31;20.70;99.90
18741;DHT22;9499;52.472;13.448;2023-07-31T11:30:58;20.80;99.90
18741;DHT22;9499;52.472;13.448;2023-07-31T11:33:24;20.90;99.90
18741;DHT22;9499;52.472;13.448;2023-07-31T11:35:51;21.10;99.90
18741;DHT22;9499;52.472;13.448;2023-07-31T11:38:26;21.10;1.00
18741;DHT22;9499;52.472;13.448;2023-07-31T11:40:54;21.10;1.00
18741;DHT22;9499;52.472;13.448;2023-07-31T11:43:21;21.00;1.00
18741;DHT22;9499;52.472;13.448;2023-07-31T11:45:48;21.00;1.00
18741;DHT22;9499;52.472;13.448;2023-07-31T11:48:19;20.90;99.70
18741;DHT22;9499;52.472;13.448;2023-07-31T11:50:46;20.90;99.90
18741;DHT22;9499;52.472;13.448;2023-07-31T11:53:15;20.80;1.00
18741;DHT22;9499;52.472;13.448;2023-07-31T11:55:43;20.80;1.00
18741;DHT22;9499;52.472;13.448;2023-07-31T11:58:10;20.80;1.00
18741;DHT22;9499;52.472;13.448;2023-07-31T12:00:37;20.80;1.00
18741;DHT22;9499;52.472;13.448;2023-07-31T12:03:04;20.80;1.00
18741;DHT22;9499;52.472;13.448;2023-07-31T12:05:31;20.70;1.00
18741;DHT22;9499;52.472;13.448;2023-07-31T12:07:57;20.70;1.00
18741;DHT22;9499;52.472;13.448;2023-07-31T12:10:25;20.60;1.00
18741;DHT22;9499;52.472;13.448;2023-07-31T12:13:04;20.60;1.00
18741;DHT22;9499;52.472;13.448;2023-07-31T12:15:39;20.70;1.00
18741;DHT22;9499;52.472;13.448;2023-07-31T12:18:08;20.70;1.00
18741;DHT22;9499;52.472;13.448;2023-07-31T12:20:35;20.80;1.00
18741;DHT22;9499;52.472;13.448;2023-07-31T12:23:02;20.90;99.90
18741;DHT22;9499;52.472;13.448;2023-07-31T12:25:30;20.90;99.90
18741;DHT22;9499;52.472;13.448;2023-07-31T12:27:56;20.90;99.90
18741;DHT22;9499;52.472;13.448;2023-07-31T12:30:28;20.90;59.30
18741;DHT22;9499;52.472;13.448;2023-07-31T12:32:55;20.90;99.90
18741;DHT22;9499;52.472;13.448;2023-07-31T12:35:21;20.90;99.90
18741;DHT22;9499;52.472;13.448;2023-07-31T12:37:48;20.90;99.90
18741;DHT22;9499;52.472;13.448;2023-07-31T12:40:14;21.00;99.90
18741;DHT22;9499;52.472;13.448;2023-07-31T12:42:41;21.10;1.00
18741;DHT22;9499;52.472;13.448;2023-07-31T12:45:08;21.00;1.00
18741;DHT22;9499;52.472;13.448;2023-07-31T12:47:36;21.10;1.00
18741;DHT22;9499;52.472;13.448;2023-07-31T12:50:03;21.20;1.00
18741;DHT22;9499;52.472;13.448;2023-07-31T12:52:29;21.40;99.90
18741;DHT22;9499;52.472;13.448;2023-07-31T12:54:56;21.40;1.00
18741;DHT22;9499;52.472;13.448;2023-07-31T12:57:22;21.50;99.90
18741;DHT22;9499;52.472;13.448;2023-07-31T12:59:49;21.50;99.90
18741;DHT22;9499;52.472;13.448;2023-07-31T13:02:15;21.50;1.00
18741;DHT22;9499;52.472;13.448;2023-07-31T13:04:43;21.50;1.00
18741;DHT22;9499;52.472;13.448;2023-07-31T13:07:09;21.40;1.00
18741;DHT22;9499;52.472;13.448;2023-07-31T13:09:36;21.20;99.90
18741;DHT22;9499;52.472;13.448;2023-07-31T13:12:03;21.10;1.00
18741;DHT22;9499;52.472;13.448;2023-07-31T13:14:29;21.10;99.90
18741;DHT22;9499;52.472;13.448;2023-07-31T13:16:56;21.10;99.90
18741;DHT22;9499;52.472;13.448;2023-07-31T13:19:22;21.10;99.90
18741;DHT22;9499;52.472;13.448;2023-07-31T13:21:50;21.10;1.00
18741;DHT22;9499;52.472;13.448;2023-07-31T13:24:17;21.10;1.00
18741;DHT22;9499;52.472;13.448;2023-07-31T13:26:43;21.00;1.00
18741;DHT22;9499;52.472;13.448;2023-07-31T13:29:10;21.00;1.00
18741;DHT22;9499;52.472;13.448;2023-07-31T13:31:36;21.00;1.00
18741;DHT22;9499;52.472;13.448;2023-07-31T13:34:03;21.00;1.00
18741;DHT22;9499;52.472;13.448;2023-07-31T13:36:29;21.00;1.00
18741;DHT22;9499;52.472;13.448;2023-07-31T13:38:57;21.00;1.00
18741;DHT22;9499;52.472;13.448;2023-07-31T13:41:23;21.10;1.00
18741;DHT22;9499;52.472;13.448;2023-07-31T13:43:50;21.20;1.00
18741;DHT22;9499;52.472;13.448;2023-07-31T13:46:16;21.40;99.90
18741;DHT22;9499;52.472;13.448;2023-07-31T13:48:43;21.50;99.90
18741;DHT22;9499;52.472;13.448;2023-07-31T13:51:09;21.70;1.00
18741;DHT22;9499;52.472;13.448;2023-07-31T13:53:36;21.80;29.50
18741;DHT22;9499;52.472;13.448;2023-07-31T13:56:04;21.90;1.00
18741;DHT22;9499;52.472;13.448;2023-07-31T13:58:30;22.00;99.90
18741;DHT22;9499;52.472;13.448;2023-07-31T14:00:57;21.90;99.90
18741;DHT22;9499;52.472;13.448;2023-07-31T14:03:23;21.80;1.00
18741;DHT22;9499;52.472;13.448;2023-07-31T14:05:51;21.80;1.00
18741;DHT22;9499;52.472;13.448;2023-07-31T14:08:18;21.80;1.00
18741;DHT22;9499;52.472;13.448;2023-07-31T14:10:45;21.80;1.00
18741;DHT22;9499;52.472;13.448;2023-07-31T14:13:12;21.80;99.90
18741;DHT22;9499;52.472;13.448;2023-07-31T14:15:41;21.80;1.00
18741;DHT22;9499;52.472;13.448;2023-07-31T14:18:08;21.90;1.00
18741;DHT22;9499;52.472;13.448;2023-07-31T14:20:34;22.00;1.00
18741;DHT22;9499;52.472;13.448;2023-07-31T14:23:02;22.10;1.00
18741;DHT22;9499;52.472;13.448;2023-07-31T14:25:28;22.10;1.00
18741;DHT22;9499;52.472;13.448;2023-07-31T14:27:55;22.10;99.90
18741;DHT22;9499;52.472;13.448;2023-07-31T14:30:23;22.00;1.00
18741;DHT22;9499;52.472;13.448;2023-07-31T14:32:49;22.00;99.80
18741;DHT22;9499;52.472;13.448;2023-07-31T14:35:16;21.90;99.90
18741;DHT22;9499;52.472;13.448;2023-07-31T14:37:43;21.80;1.00
18741;DHT22;9499;52.472;13.448;2023-07-31T14:40:11;21.90;1.00
18741;DHT22;9499;52.472;13.448;2023-07-31T14:42:39;21.90;99.90
18741;DHT22;9499;52.472;13.448;2023-07-31T14:45:07;21.90;1.00
18741;DHT22;9499;52.472;13.448;2023-07-31T14:47:36;21.90;99.90
18741;DHT22;9499;52.472;13.448;2023-07-31T14:50:03;21.90;1.00
18741;DHT22;9499;52.472;13.448;2023-07-31T14:52:30;21.90;1.00
18741;DHT22;9499;52.472;13.448;2023-07-31T14:54:56;21.90;1.00
18741;DHT22;9499;52.472;13.448;2023-07-31T14:57:23;22.00;1.00
18741;DHT22;9499;52.472;13.448;2023-07-31T14:59:49;22.00;99.90
18741;DHT22;9499;52.472;13.448;2023-07-31T15:02:16;21.90;1.00
18741;DHT22;9499;52.472;13.448;2023-07-31T15:04:43;21.90;99.90
18741;DHT22;9499;52.472;13.448;2023-07-31T15:07:10;21.90;15.30
18741;DHT22;9499;52.472;13.448;2023-07-31T15:09:38;21.90;1.00
18741;DHT22;9499;52.472;13.448;2023-07-31T15:12:06;21.90;1.00
18741;DHT22;9499;52.472;13.448;2023-07-31T15:14:32;21.80;99.90
18741;DHT22;9499;52.472;13.448;2023-07-31T15:17:00;21.80;1.00
18741;DHT22;9499;52.472;13.448;2023-07-31T15:19:26;21.80;80.70
18741;DHT22;9499;52.472;13.448;2023-07-31T15:21:56;21.80;1.00
18741;DHT22;9499;52.472;13.448;2023-07-31T15:24:22;21.70;99.90
18741;DHT22;9499;52.472;13.448;2023-07-31T15:26:49;21.70;1.00
18741;DHT22;9499;52.472;13.448;2023-07-31T15:29:15;21.60;1.00
18741;DHT22;9499;52.472;13.448;2023-07-31T15:31:44;21.60;99.90
18741;DHT22;9499;52.472;13.448;2023-07-31T15:34:12;21.60;99.90
18741;DHT22;9499;52.472;13.448;2023-07-31T15:36:39;21.50;1.00